createdAt,value
2023-03-30T00:01:02.916Z,3.53
2023-03-30T00:03:30.386Z,3.58
2023-03-30T00:06:05.184Z,3.53
2023-03-30T00:08:33.366Z,3.75
2023-03-30T00:11:02.614Z,3.60
2023-03-30T00:13:30.880Z,3.60
2023-03-30T00:15:58.095Z,3.28
2023-03-30T00:18:26.406Z,3.90
2023-03-30T00:20:53.657Z,3.40
2023-03-30T00:23:20.831Z,3.17
2023-03-30T00:25:48.381Z,2.97
2023-03-30T00:28:15.758Z,2.80
2023-03-30T00:30:43.418Z,3.55
2023-03-30T00:33:10.860Z,3.05
2023-03-30T00:35:38.054Z,3.22
2023-03-30T00:38:05.884Z,3.58
2023-03-30T00:40:34.702Z,2.97
2023-03-30T00:43:06.630Z,3.38
2023-03-30T00:45:36.612Z,2.60
2023-03-30T00:48:09.390Z,3.17
2023-03-30T00:50:52.608Z,2.80
2023-03-30T00:53:33.736Z,2.80
2023-03-30T00:56:03.058Z,2.63
2023-03-30T00:58:32.044Z,2.83
2023-03-30T01:01:02.075Z,2.20
2023-03-30T01:03:36.258Z,2.85
2023-03-30T01:06:07.564Z,1.90
2023-03-30T01:08:36.433Z,2.42
2023-03-30T01:11:06.502Z,2.35
2023-03-30T01:13:39.684Z,2.65
2023-03-30T01:16:25.390Z,2.55
2023-03-30T01:19:18.837Z,2.20
2023-03-30T01:22:01.581Z,1.80
2023-03-30T01:24:53.504Z,2.30
2023-03-30T01:27:48.393Z,2.05
2023-03-30T01:30:33.243Z,2.10
2023-03-30T01:33:03.681Z,1.73
2023-03-30T01:36:01.787Z,1.80
2023-03-30T01:38:55.742Z,1.77
2023-03-30T01:41:52.379Z,2.65
2023-03-30T01:44:40.840Z,1.55
2023-03-30T01:47:10.855Z,1.70
2023-03-30T01:50:03.334Z,1.55
2023-03-30T01:52:53.113Z,1.58
2023-03-30T01:55:28.915Z,1.80
2023-03-30T01:58:03.698Z,1.75
2023-03-30T02:00:31.506Z,2.45
2023-03-30T02:03:08.725Z,1.80
2023-03-30T02:05:38.002Z,1.90
2023-03-30T02:08:10.471Z,1.80
2023-03-30T02:10:39.561Z,1.80
2023-03-30T02:13:08.261Z,1.88
2023-03-30T02:15:50.145Z,1.88
2023-03-30T02:18:19.457Z,1.75
2023-03-30T02:20:47.465Z,1.90
2023-03-30T02:23:17.358Z,2.20
2023-03-30T02:25:45.085Z,2.20
2023-03-30T02:28:12.230Z,1.60
2023-03-30T02:30:42.588Z,2.25
2023-03-30T02:33:37.708Z,1.83
2023-03-30T02:36:34.442Z,2.70
2023-03-30T02:39:35.681Z,2.40
2023-03-30T02:42:40.720Z,2.30
2023-03-30T02:45:26.287Z,1.80
2023-03-30T02:48:01.482Z,1.70
2023-03-30T02:50:37.372Z,1.98
2023-03-30T02:53:40.461Z,2.22
2023-03-30T02:56:19.245Z,2.28
2023-03-30T02:59:05.928Z,1.90
2023-03-30T03:01:36.296Z,1.75
2023-03-30T03:04:06.086Z,1.35
2023-03-30T03:06:33.375Z,1.85
2023-03-30T03:09:00.482Z,2.10
2023-03-30T03:11:27.567Z,1.65
2023-03-30T03:13:55.508Z,1.67
2023-03-30T03:16:22.968Z,1.88
2023-03-30T03:18:50.276Z,2.10
2023-03-30T03:21:17.334Z,1.45
2023-03-30T03:23:44.458Z,1.65
2023-03-30T03:26:11.727Z,1.60
2023-03-30T03:28:39.508Z,1.73
2023-03-30T03:31:06.950Z,1.50
2023-03-30T03:33:34.405Z,1.48
2023-03-30T03:36:01.739Z,1.48
2023-03-30T03:38:29.576Z,1.30
2023-03-30T03:40:58.546Z,3.30
2023-03-30T03:43:26.214Z,1.80
2023-03-30T03:45:53.629Z,1.80
2023-03-30T03:48:23.555Z,2.22
2023-03-30T03:50:56.470Z,1.35
2023-03-30T03:53:26.398Z,1.50
2023-03-30T03:55:54.708Z,1.58
2023-03-30T03:58:22.204Z,1.77
2023-03-30T04:00:49.616Z,1.27
2023-03-30T04:03:17.006Z,1.50
2023-03-30T04:05:44.458Z,1.65
2023-03-30T04:08:11.876Z,1.20
2023-03-30T04:10:41.521Z,1.10
2023-03-30T04:13:09.515Z,1.27
2023-03-30T04:15:36.787Z,1.25
2023-03-30T04:18:05.326Z,1.08
2023-03-30T04:20:32.735Z,1.27
2023-03-30T04:23:01.756Z,1.17
2023-03-30T04:25:29.319Z,1.27
2023-03-30T04:27:57.226Z,1.63
2023-03-30T04:30:24.802Z,1.63
2023-03-30T04:33:04.599Z,2.00
2023-03-30T04:35:33.291Z,1.35
2023-03-30T04:38:01.942Z,1.65
2023-03-30T04:40:29.432Z,1.55
2023-03-30T04:43:02.225Z,1.95
2023-03-30T04:45:32.842Z,2.15
2023-03-30T04:47:59.983Z,2.13
2023-03-30T04:50:27.083Z,2.10
2023-03-30T04:52:54.181Z,1.88
2023-03-30T04:55:21.263Z,1.83
2023-03-30T04:57:48.334Z,1.58
2023-03-30T05:00:16.077Z,1.40
2023-03-30T05:02:43.326Z,1.55
2023-03-30T05:05:10.932Z,1.50
2023-03-30T05:07:38.083Z,2.00
2023-03-30T05:10:05.304Z,1.58
2023-03-30T05:12:32.759Z,1.30
2023-03-30T05:14:59.880Z,1.92
2023-03-30T05:17:26.921Z,1.42
2023-03-30T05:19:54.591Z,1.05
2023-03-30T05:22:21.895Z,1.88
2023-03-30T05:24:49.202Z,1.55
2023-03-30T05:27:16.200Z,2.00
2023-03-30T05:29:43.197Z,2.17
2023-03-30T05:32:10.902Z,2.38
2023-03-30T05:34:37.975Z,1.77
2023-03-30T05:37:05.024Z,2.53
2023-03-30T05:39:32.496Z,2.28
2023-03-30T05:41:59.591Z,2.75
2023-03-30T05:44:26.714Z,2.50
2023-03-30T05:46:54.473Z,2.50
2023-03-30T05:49:21.900Z,1.98
2023-03-30T05:51:48.956Z,2.40
2023-03-30T05:54:15.992Z,1.92
2023-03-30T05:56:43.159Z,2.30
2023-03-30T05:59:11.679Z,2.58
2023-03-30T06:01:39.324Z,2.80
2023-03-30T06:04:06.949Z,3.00
2023-03-30T06:06:34.183Z,2.70
2023-03-30T06:09:02.657Z,2.38
2023-03-30T06:11:30.230Z,2.92
2023-03-30T06:13:57.920Z,2.88
2023-03-30T06:16:25.676Z,2.30
2023-03-30T06:18:52.994Z,2.72
2023-03-30T06:21:20.706Z,3.10
2023-03-30T06:23:49.021Z,2.80
2023-03-30T06:26:16.216Z,2.70
2023-03-30T06:28:43.447Z,2.67
2023-03-30T06:31:12.100Z,2.45
2023-03-30T06:33:41.954Z,2.20
2023-03-30T06:36:14.312Z,2.58
2023-03-30T06:38:43.635Z,3.40
2023-03-30T06:41:12.634Z,2.53
2023-03-30T06:43:40.725Z,3.55
2023-03-30T06:46:09.570Z,2.58
2023-03-30T06:48:36.816Z,2.90
2023-03-30T06:51:04.316Z,2.85
2023-03-30T06:53:31.799Z,2.40
2023-03-30T06:55:59.372Z,2.80
2023-03-30T06:58:27.576Z,3.10
2023-03-30T07:00:54.834Z,2.85
2023-03-30T07:03:23.026Z,2.92
2023-03-30T07:05:51.189Z,2.45
2023-03-30T07:08:20.023Z,2.75
2023-03-30T07:10:48.316Z,2.72
2023-03-30T07:13:16.960Z,2.67
2023-03-30T07:15:45.706Z,4.25
2023-03-30T07:18:13.242Z,3.55
2023-03-30T07:20:40.976Z,3.17
2023-03-30T07:23:09.593Z,2.88
2023-03-30T07:25:36.714Z,2.97
2023-03-30T07:28:06.262Z,3.17
2023-03-30T07:30:34.677Z,3.13
2023-03-30T07:33:02.006Z,3.03
2023-03-30T07:35:29.168Z,3.28
2023-03-30T07:38:02.694Z,3.22
2023-03-30T07:40:30.929Z,3.08
2023-03-30T07:42:58.422Z,3.40
2023-03-30T07:45:25.655Z,3.13
2023-03-30T07:47:53.219Z,3.38
2023-03-30T07:50:22.079Z,3.50
2023-03-30T07:52:53.787Z,3.17
2023-03-30T07:55:21.161Z,3.08
2023-03-30T07:57:48.222Z,3.58
2023-03-30T08:00:15.805Z,3.17
2023-03-30T08:02:42.927Z,3.08
2023-03-30T08:05:11.342Z,3.28
2023-03-30T08:07:39.546Z,2.85
2023-03-30T08:10:08.176Z,2.78
2023-03-30T08:12:35.377Z,3.20
2023-03-30T08:15:03.365Z,3.20
2023-03-30T08:17:30.968Z,3.30
2023-03-30T08:19:58.133Z,3.35
2023-03-30T08:22:25.412Z,3.15
2023-03-30T08:24:53.400Z,3.55
2023-03-30T08:27:20.594Z,3.30
2023-03-30T08:29:48.777Z,2.88
2023-03-30T08:32:16.262Z,3.85
2023-03-30T08:34:43.345Z,3.90
2023-03-30T08:37:11.982Z,2.95
2023-03-30T08:39:39.423Z,3.60
2023-03-30T08:42:12.582Z,3.53
2023-03-30T08:44:46.274Z,3.58
2023-03-30T08:47:16.964Z,3.05
2023-03-30T08:50:17.457Z,4.03
2023-03-30T08:52:45.599Z,3.58
2023-03-30T08:55:39.506Z,3.22
2023-03-30T08:58:34.425Z,3.45
2023-03-30T09:01:18.577Z,3.10
2023-03-30T09:06:41.107Z,3.38
2023-03-30T09:09:13.153Z,3.45
2023-03-30T09:11:40.997Z,3.20
2023-03-30T09:14:17.395Z,3.10
2023-03-30T09:17:29.436Z,3.03
2023-03-30T09:20:01.311Z,2.80
2023-03-30T09:22:37.563Z,3.42
2023-03-30T09:25:49.279Z,3.30
2023-03-30T09:28:39.567Z,3.85
2023-03-30T09:31:21.806Z,3.45
2023-03-30T09:34:10.338Z,3.75
2023-03-30T09:37:04.869Z,3.33
2023-03-30T09:39:34.899Z,3.80
2023-03-30T09:42:21.167Z,3.60
2023-03-30T09:44:56.164Z,2.88
2023-03-30T09:47:37.370Z,3.75
2023-03-30T09:50:26.860Z,3.40
2023-03-30T09:52:58.970Z,3.90
2023-03-30T09:55:34.581Z,3.55
2023-03-30T09:58:19.086Z,3.17
2023-03-30T10:00:47.294Z,3.22
2023-03-30T10:03:23.047Z,4.00
2023-03-30T10:06:13.170Z,2.80
2023-03-30T10:08:48.365Z,5.50
2023-03-30T10:11:38.126Z,3.60
2023-03-30T10:14:07.431Z,3.97
2023-03-30T10:16:35.562Z,4.35
2023-03-30T10:19:09.795Z,4.47
2023-03-30T10:21:40.734Z,4.43
2023-03-30T10:24:23.155Z,4.03
2023-03-30T10:26:53.813Z,3.65
2023-03-30T10:29:23.439Z,3.17
2023-03-30T10:31:59.932Z,3.80
2023-03-30T10:34:33.100Z,3.47
2023-03-30T10:37:00.360Z,3.80
2023-03-30T10:39:33.642Z,3.70
2023-03-30T10:42:04.217Z,3.92
2023-03-30T10:44:55.936Z,4.40
2023-03-30T10:47:41.448Z,3.65
2023-03-30T10:50:35.755Z,4.28
2023-03-30T10:53:19.831Z,3.40
2023-03-30T10:58:55.028Z,3.95
2023-03-30T11:01:32.614Z,4.38
2023-03-30T11:04:53.916Z,4.70
2023-03-30T11:07:43.926Z,4.20
2023-03-30T11:10:29.261Z,4.07
2023-03-30T11:13:07.014Z,4.18
2023-03-30T11:15:59.180Z,3.58
2023-03-30T11:18:34.387Z,4.13
2023-03-30T11:21:05.700Z,4.22
2023-03-30T11:23:35.459Z,3.45
2023-03-30T11:26:08.391Z,4.00
2023-03-30T11:29:07.277Z,2.78
2023-03-30T11:31:50.190Z,3.92
2023-03-30T11:34:40.954Z,3.83
2023-03-30T11:37:27.252Z,3.05
2023-03-30T11:40:13.861Z,3.88
2023-03-30T11:42:41.842Z,4.35
2023-03-30T11:45:21.527Z,3.25
2023-03-30T11:47:54.513Z,2.88
2023-03-30T11:50:24.473Z,3.40
2023-03-30T11:53:11.159Z,2.85
2023-03-30T11:56:07.832Z,3.70
2023-03-30T11:58:47.662Z,2.83
2023-03-30T12:01:30.836Z,3.13
2023-03-30T12:04:10.850Z,3.57
2023-03-30T12:06:47.440Z,4.30
2023-03-30T12:09:29.072Z,3.85
2023-03-30T12:12:11.978Z,3.45
2023-03-30T12:14:51.122Z,4.32
2023-03-30T12:17:26.801Z,2.90
2023-03-30T12:20:20.405Z,2.78
2023-03-30T12:22:55.840Z,4.40
2023-03-30T12:25:38.179Z,11.90
2023-03-30T12:28:16.539Z,4.72
2023-03-30T12:30:59.673Z,4.35
2023-03-30T12:33:48.711Z,3.60
2023-03-30T12:36:40.611Z,3.95
2023-03-30T12:39:22.188Z,5.25
2023-03-30T12:41:50.849Z,6.40
2023-03-30T12:44:48.783Z,4.63
2023-03-30T12:47:23.153Z,5.28
2023-03-30T12:50:27.713Z,3.63
2023-03-30T12:55:43.609Z,2.72
2023-03-30T12:58:30.195Z,3.50
2023-03-30T13:01:06.271Z,3.70
2023-03-30T13:03:53.443Z,3.55
2023-03-30T13:06:33.365Z,3.83
2023-03-30T13:09:12.478Z,3.45
2023-03-30T13:12:02.493Z,4.18
2023-03-30T13:14:34.209Z,3.75
2023-03-30T13:17:01.497Z,3.70
2023-03-30T13:19:31.928Z,3.72
2023-03-30T13:22:11.252Z,3.67
2023-03-30T13:24:53.479Z,3.88
2023-03-30T13:27:23.008Z,3.17
2023-03-30T13:30:13.988Z,4.28
2023-03-30T13:32:53.212Z,3.75
2023-03-30T13:35:32.848Z,3.83
2023-03-30T13:38:18.590Z,5.18
2023-03-30T13:41:05.345Z,4.70
2023-03-30T13:43:40.977Z,4.95
2023-03-30T13:46:17.094Z,4.30
2023-03-30T13:49:09.800Z,4.20
2023-03-30T13:51:39.840Z,4.03
2023-03-30T13:54:29.396Z,4.22
2023-03-30T13:57:06.447Z,3.63
2023-03-30T13:59:38.373Z,3.78
2023-03-30T14:02:06.380Z,3.78
2023-03-30T14:04:37.202Z,3.10
2023-03-30T14:07:16.159Z,4.15
2023-03-30T14:10:22.148Z,3.13
2023-03-30T14:12:53.632Z,4.32
2023-03-30T14:15:33.938Z,4.32
2023-03-30T14:18:04.657Z,3.85
2023-03-30T14:21:07.031Z,4.15
2023-03-30T14:23:45.839Z,3.58
2023-03-30T14:26:30.859Z,3.83
2023-03-30T14:29:02.913Z,3.38
2023-03-30T14:31:39.921Z,3.60
2023-03-30T14:34:27.062Z,3.50
2023-03-30T14:37:00.651Z,2.92
2023-03-30T14:39:29.878Z,3.50
2023-03-30T14:42:01.227Z,3.17
2023-03-30T14:44:28.294Z,3.55
2023-03-30T14:46:56.057Z,3.90
2023-03-30T14:49:27.513Z,3.65
2023-03-30T14:52:03.082Z,2.92
2023-03-30T14:54:30.833Z,3.10
2023-03-30T14:57:00.311Z,3.22
2023-03-30T14:59:28.837Z,4.68
2023-03-30T15:01:56.690Z,3.25
2023-03-30T15:04:28.966Z,3.65
2023-03-30T15:06:56.148Z,3.33
2023-03-30T15:09:24.916Z,2.78
2023-03-30T15:12:00.020Z,3.50
2023-03-30T15:14:32.930Z,3.13
2023-03-30T15:17:04.116Z,3.85
2023-03-30T15:19:36.494Z,3.10
2023-03-30T15:22:20.674Z,3.22
2023-03-30T15:24:47.842Z,2.80
2023-03-30T15:27:16.449Z,3.78
2023-03-30T15:29:44.933Z,4.05
2023-03-30T15:32:19.319Z,3.05
2023-03-30T15:35:04.465Z,2.97
2023-03-30T15:37:33.095Z,2.85
2023-03-30T15:40:00.640Z,3.33
2023-03-30T15:42:32.983Z,2.42
2023-03-30T15:45:12.251Z,3.53
2023-03-30T15:47:40.838Z,3.55
2023-03-30T15:50:14.061Z,3.20
2023-03-30T15:52:44.896Z,3.78
2023-03-30T15:55:23.977Z,3.00
2023-03-30T15:57:51.893Z,3.50
2023-03-30T16:00:22.100Z,2.33
2023-03-30T16:02:57.773Z,2.75
2023-03-30T16:05:29.546Z,3.20
2023-03-30T16:07:56.890Z,2.58
2023-03-30T16:10:32.572Z,2.13
2023-03-30T16:13:00.855Z,2.33
2023-03-30T16:15:30.466Z,2.05
2023-03-30T16:17:57.867Z,2.88
2023-03-30T16:20:28.688Z,2.47
2023-03-30T16:22:56.062Z,2.47
2023-03-30T16:25:41.701Z,2.83
2023-03-30T16:28:16.318Z,2.65
2023-03-30T16:30:46.208Z,2.20
2023-03-30T16:33:13.417Z,2.42
2023-03-30T16:35:41.333Z,2.92
2023-03-30T16:38:13.700Z,2.97
2023-03-30T16:40:43.328Z,2.42
2023-03-30T16:43:11.594Z,2.30
2023-03-30T16:45:39.653Z,2.40
2023-03-30T16:48:06.958Z,2.28
2023-03-30T16:50:46.834Z,2.40
2023-03-30T16:53:13.979Z,2.22
2023-03-30T16:55:41.217Z,1.60
2023-03-30T16:58:11.076Z,2.00
2023-03-30T17:00:49.161Z,2.47
2023-03-30T17:03:18.144Z,2.10
2023-03-30T17:05:48.668Z,2.05
2023-03-30T17:08:28.659Z,2.83
2023-03-30T17:11:01.056Z,2.00
2023-03-30T17:13:28.596Z,2.67
2023-03-30T17:15:58.200Z,2.78
2023-03-30T17:18:25.896Z,2.58
2023-03-30T17:20:57.663Z,3.08
2023-03-30T17:23:27.635Z,2.97
2023-03-30T17:25:56.318Z,3.15
2023-03-30T17:28:31.782Z,2.35
2023-03-30T17:31:01.446Z,2.47
2023-03-30T17:33:30.663Z,2.25
2023-03-30T17:36:01.641Z,2.60
2023-03-30T17:38:29.910Z,2.60
2023-03-30T17:40:57.454Z,4.22
2023-03-30T17:43:26.468Z,3.22
2023-03-30T17:45:53.716Z,2.47
2023-03-30T17:48:21.842Z,3.38
2023-03-30T17:50:50.981Z,3.05
2023-03-30T17:53:20.084Z,3.15
2023-03-30T17:55:49.255Z,2.20
2023-03-30T17:58:20.683Z,2.80
2023-03-30T18:00:48.576Z,1.98
2023-03-30T18:03:17.370Z,2.90
2023-03-30T18:05:44.816Z,3.13
2023-03-30T18:08:17.943Z,2.30
2023-03-30T18:10:49.503Z,3.15
2023-03-30T18:13:16.563Z,2.70
2023-03-30T18:15:46.294Z,3.05
2023-03-30T18:18:14.276Z,2.47
2023-03-30T18:20:44.006Z,2.42
2023-03-30T18:23:11.105Z,2.63
2023-03-30T18:25:38.156Z,3.03
2023-03-30T18:28:13.674Z,2.75
2023-03-30T18:30:40.800Z,3.58
2023-03-30T18:33:08.154Z,3.35
2023-03-30T18:35:36.950Z,3.13
2023-03-30T18:38:05.378Z,3.05
2023-03-30T18:40:41.837Z,3.53
2023-03-30T18:43:09.392Z,2.92
2023-03-30T18:45:42.393Z,2.80
2023-03-30T18:48:13.221Z,2.08
2023-03-30T18:50:46.870Z,2.47
2023-03-30T18:53:19.150Z,3.38
2023-03-30T18:55:48.779Z,3.55
2023-03-30T18:58:24.346Z,3.67
2023-03-30T19:00:53.267Z,3.28
2023-03-30T19:03:22.413Z,2.72
2023-03-30T19:05:50.994Z,3.55
2023-03-30T19:08:23.696Z,3.90
2023-03-30T19:10:54.818Z,3.25
2023-03-30T19:13:23.197Z,3.22
2023-03-30T19:15:51.339Z,3.35
2023-03-30T19:18:19.285Z,4.13
2023-03-30T19:20:49.305Z,3.70
2023-03-30T19:23:17.866Z,4.25
2023-03-30T19:25:45.713Z,3.22
2023-03-30T19:28:14.622Z,3.58
2023-03-30T19:30:42.228Z,3.63
2023-03-30T19:33:12.402Z,4.25
2023-03-30T19:35:41.324Z,4.45
2023-03-30T19:38:09.746Z,4.25
2023-03-30T19:40:39.534Z,4.18
2023-03-30T19:43:07.628Z,4.35
2023-03-30T19:45:35.630Z,3.92
2023-03-30T19:48:02.901Z,4.28
2023-03-30T19:50:30.554Z,4.40
2023-03-30T19:52:58.414Z,4.18
2023-03-30T19:55:26.196Z,4.43
2023-03-30T19:57:53.673Z,4.30
2023-03-30T20:00:21.129Z,4.30
2023-03-30T20:02:50.911Z,4.00
2023-03-30T20:05:19.657Z,4.95
2023-03-30T20:07:47.167Z,4.63
2023-03-30T20:10:21.421Z,3.30
2023-03-30T20:12:49.665Z,3.80
2023-03-30T20:15:17.975Z,3.42
2023-03-30T20:17:45.324Z,3.25
2023-03-30T20:20:17.034Z,3.83
2023-03-30T20:22:44.648Z,4.05
2023-03-30T20:25:13.961Z,2.92
2023-03-30T20:27:41.528Z,3.13
2023-03-30T20:30:09.844Z,2.80
2023-03-30T20:32:37.193Z,4.07
2023-03-30T20:35:06.142Z,4.50
2023-03-30T20:37:33.795Z,2.85
2023-03-30T20:40:09.682Z,3.15
2023-03-30T20:42:40.737Z,3.10
2023-03-30T20:45:08.492Z,3.88
2023-03-30T20:47:36.490Z,3.90
2023-03-30T20:50:05.321Z,4.35
2023-03-30T20:52:32.732Z,4.07
2023-03-30T20:54:59.766Z,5.25
2023-03-30T20:57:27.478Z,5.40
2023-03-30T20:59:54.774Z,4.18
2023-03-30T21:02:22.312Z,3.53
2023-03-30T21:04:50.352Z,3.42
2023-03-30T21:07:18.009Z,2.80
2023-03-30T21:09:45.817Z,3.78
2023-03-30T21:12:13.063Z,3.30
2023-03-30T21:14:41.004Z,2.40
2023-03-30T21:17:08.184Z,3.03
2023-03-30T21:19:35.730Z,3.08
2023-03-30T21:22:03.079Z,3.28
2023-03-30T21:24:30.570Z,3.00
2023-03-30T21:26:57.673Z,2.92
2023-03-30T21:29:25.057Z,3.58
2023-03-30T21:31:52.298Z,3.58
2023-03-30T21:34:20.157Z,3.22
2023-03-30T21:36:47.395Z,2.58
2023-03-30T21:39:14.471Z,2.92
2023-03-30T21:41:41.606Z,3.10
2023-03-30T21:44:08.668Z,2.78
2023-03-30T21:46:36.191Z,3.25
2023-03-30T21:49:03.673Z,2.50
2023-03-30T21:51:31.691Z,2.13
2023-03-30T21:53:59.478Z,2.80
2023-03-30T21:56:29.826Z,2.72
2023-03-30T21:58:57.950Z,2.97
2023-03-30T22:01:26.011Z,3.03
2023-03-30T22:03:54.040Z,2.67
2023-03-30T22:06:22.139Z,3.05
2023-03-30T22:08:49.712Z,2.78
2023-03-30T22:11:19.308Z,3.17
2023-03-30T22:13:48.346Z,2.95
2023-03-30T22:16:19.240Z,3.33
2023-03-30T22:18:46.857Z,2.90
2023-03-30T22:21:35.548Z,3.05
2023-03-30T22:24:04.205Z,2.95
2023-03-30T22:26:31.804Z,3.22
2023-03-30T22:28:58.890Z,2.75
2023-03-30T22:31:27.510Z,3.78
2023-03-30T22:33:56.355Z,2.58
2023-03-30T22:36:31.631Z,2.50
2023-03-30T22:39:00.846Z,2.55
2023-03-30T22:41:28.183Z,3.30
2023-03-30T22:43:57.226Z,3.55
2023-03-30T22:46:26.030Z,2.55
2023-03-30T22:48:55.716Z,2.78
2023-03-30T22:51:27.539Z,4.30
2023-03-30T22:53:58.684Z,3.80
2023-03-30T22:56:27.278Z,3.25
2023-03-30T22:58:54.691Z,2.70
2023-03-30T23:01:22.363Z,3.15
2023-03-30T23:03:49.570Z,3.45
2023-03-30T23:06:19.130Z,3.58
2023-03-30T23:08:48.258Z,3.25
2023-03-30T23:11:15.825Z,2.92
2023-03-30T23:13:42.927Z,3.85
2023-03-30T23:16:11.155Z,2.45
2023-03-30T23:18:40.124Z,4.03
2023-03-30T23:21:10.968Z,2.70
2023-03-30T23:23:38.357Z,3.00
2023-03-30T23:26:10.937Z,2.75
2023-03-30T23:28:41.156Z,3.13
2023-03-30T23:31:13.312Z,2.38
2023-03-30T23:33:41.858Z,3.13
2023-03-30T23:36:13.677Z,3.20
2023-03-30T23:38:42.435Z,2.40
2023-03-30T23:41:12.564Z,4.70
2023-03-30T23:43:39.928Z,3.72
2023-03-30T23:46:07.245Z,3.15
2023-03-30T23:48:34.532Z,3.25
2023-03-30T23:51:01.704Z,3.22
2023-03-30T23:53:28.804Z,2.97
2023-03-30T23:55:56.268Z,4.00
2023-03-30T23:58:25.220Z,3.13
